Time;durP1;ratioP1;P1;durP2;ratioP2;P2;SDS_P1;SDS_P2;PMS_P1;PMS_P2;Temp;Humidity;BMP_temperature;BMP_pressure;BME280_temperature;BME280_humidity;BME280_pressure;Samples;Min_cycle;Max_cycle;Signal;HPM_P1;HPM_P2
2023/10/03 00:00:24;;;;;;;16.60;9.40;;;;;;;;;;109233;1252;59331;-81
2023/10/03 00:03:13;;;;;;;18.40;8.70;;;;;;;;;;109214;1252;62421;-80
2023/10/03 00:05:42;;;;;;;;;;;;;;;;;;109258;1252;59798;-80
2023/10/03 00:08:08;;;;;;;15.60;8.80;;;;;;;;;;109289;1252;59685;-81
2023/10/03 00:10:38;;;;;;;17.30;9.10;;;;;;;;;;109197;1253;59027;-80
2023/10/03 00:13:07;;;;;;;18.50;9.30;;;;;;;;;;109329;1253;59668;-80
2023/10/03 00:15:34;;;;;;;15.20;8.80;;;;;;;;;;109297;1253;59428;-80
2023/10/03 00:18:01;;;;;;;13.10;7.90;;;;;;;;;;109116;1254;59145;-80
2023/10/03 00:20:27;;;;;;;16.60;9.20;;;;;;;;;;109129;1254;59109;-80
2023/10/03 00:22:54;;;;;;;14.00;8.30;;;;;;;;;;109232;1254;59622;-80
2023/10/03 00:25:26;;;;;;;12.80;8.20;;;;;;;;;;109324;1253;59024;-80
2023/10/03 00:27:54;;;;;;;13.00;7.90;;;;;;;;;;109275;1253;59783;-80
2023/10/03 00:30:24;;;;;;;17.40;8.10;;;;;;;;;;109234;1252;59631;-81
2023/10/03 00:32:51;;;;;;;13.00;8.20;;;;;;;;;;109268;1252;58937;-80
2023/10/03 00:35:20;;;;;;;14.30;8.50;;;;;;;;;;109241;1252;60796;-80
2023/10/03 00:37:47;;;;;;;18.70;8.40;;;;;;;;;;109222;1252;59640;-81
2023/10/03 00:40:27;;;;;;;13.80;8.10;;;;;;;;;;109229;1252;59943;-80
2023/10/03 00:42:54;;;;;;;11.40;6.90;;;;;;;;;;109253;1252;59093;-80
2023/10/03 00:45:25;;;;;;;17.70;9.20;;;;;;;;;;109279;1252;58989;-81
2023/10/03 00:47:54;;;;;;;14.30;8.40;;;;;;;;;;109258;1252;61966;-80
2023/10/03 00:50:25;;;;;;;11.30;7.70;;;;;;;;;;109253;1252;59041;-80
2023/10/03 00:52:55;;;;;;;18.00;8.00;;;;;;;;;;109250;1253;59054;-80
2023/10/03 00:55:28;;;;;;;15.90;8.20;;;;;;;;;;109241;1252;59668;-80
2023/10/03 00:58:17;;;;;;;17.10;7.60;;;;;;;;;;109226;1252;59003;-80
2023/10/03 01:00:44;;;;;;;;;;;;;;;;;;109297;1252;61986;-80
2023/10/03 01:03:31;;;;;;;15.10;8.50;;;;;;;;;;109240;1252;58987;-80
2023/10/03 01:05:59;;;;;;;16.10;8.60;;;;;;;;;;109254;1252;60698;-80
2023/10/03 01:08:25;;;;;;;15.90;9.20;;;;;;;;;;109292;1252;59268;-80
2023/10/03 01:10:54;;;;;;;15.60;9.40;;;;;;;;;;109331;1254;59360;-81
2023/10/03 01:13:23;;;;;;;21.90;9.00;;;;;;;;;;109202;1253;167265;-80
2023/10/03 01:15:50;;;;;;;;;;;;;;;;;;109373;1253;59062;-81
2023/10/03 01:18:18;;;;;;;12.30;7.60;;;;;;;;;;109327;1253;60869;-80
2023/10/03 01:20:49;;;;;;;12.40;7.40;;;;;;;;;;109319;1253;59026;-81
2023/10/03 01:23:16;;;;;;;11.30;7.30;;;;;;;;;;109292;1252;59120;-80
2023/10/03 01:25:43;;;;;;;13.10;8.60;;;;;;;;;;109235;1252;61609;-80
2023/10/03 01:28:10;;;;;;;15.40;8.00;;;;;;;;;;109268;1252;59104;-80
2023/10/03 01:30:37;;;;;;;11.80;7.70;;;;;;;;;;109241;1253;59738;-80
2023/10/03 01:33:04;;;;;;;16.30;9.40;;;;;;;;;;109205;1252;59050;-80
2023/10/03 01:35:30;;;;;;;10.50;7.30;;;;;;;;;;109255;1252;59581;-80
2023/10/03 01:37:57;;;;;;;18.00;9.30;;;;;;;;;;109235;1252;59609;-80
2023/10/03 01:40:23;;;;;;;16.20;8.10;;;;;;;;;;109248;1252;59371;-80
2023/10/03 01:42:50;;;;;;;11.60;7.50;;;;;;;;;;109249;1252;59227;-80
2023/10/03 01:45:17;;;;;;;11.60;7.30;;;;;;;;;;109243;1252;59253;-80
2023/10/03 01:47:45;;;;;;;13.80;8.30;;;;;;;;;;109246;1252;59744;-80
2023/10/03 01:50:12;;;;;;;12.50;7.60;;;;;;;;;;109235;1252;61699;-80
2023/10/03 01:52:41;;;;;;;14.10;9.20;;;;;;;;;;109249;1252;59795;-80
2023/10/03 01:55:10;;;;;;;13.20;7.20;;;;;;;;;;109223;1252;59467;-80
2023/10/03 01:57:37;;;;;;;13.10;6.30;;;;;;;;;;109195;1252;59968;-80
2023/10/03 02:02:49;;;;;;;16.70;7.20;;;;;;;;;;109241;1252;61608;-80
2023/10/03 02:05:19;;;;;;;11.90;6.10;;;;;;;;;;109266;1252;59757;-80
2023/10/03 02:07:46;;;;;;;10.20;6.10;;;;;;;;;;109273;1252;59582;-80
2023/10/03 02:10:12;;;;;;;11.30;5.80;;;;;;;;;;109329;1252;59045;-80
2023/10/03 02:12:40;;;;;;;10.50;6.30;;;;;;;;;;109303;1253;58996;-80
2023/10/03 02:15:09;;;;;;;16.90;8.10;;;;;;;;;;109333;1252;62939;-80
2023/10/03 02:17:35;;;;;;;20.10;8.00;;;;;;;;;;109259;1253;59059;-80
2023/10/03 02:20:08;;;;;;;11.70;6.80;;;;;;;;;;109237;1252;59035;-80
2023/10/03 02:22:38;;;;;;;12.60;6.60;;;;;;;;;;109252;1252;59101;-80
2023/10/03 02:25:05;;;;;;;11.20;6.50;;;;;;;;;;109375;1252;58950;-80
2023/10/03 02:27:31;;;;;;;13.60;6.90;;;;;;;;;;109270;1252;62145;-81
2023/10/03 02:29:58;;;;;;;12.30;6.10;;;;;;;;;;109276;1252;59476;-80
2023/10/03 02:32:26;;;;;;;15.90;6.30;;;;;;;;;;109261;1253;59006;-80
2023/10/03 02:34:53;;;;;;;11.90;7.00;;;;;;;;;;109211;1252;59467;-80
2023/10/03 02:37:20;;;;;;;11.20;6.40;;;;;;;;;;109287;1252;59516;-80
2023/10/03 02:39:46;;;;;;;11.50;6.80;;;;;;;;;;109213;1252;59410;-80
2023/10/03 02:42:13;;;;;;;12.20;7.00;;;;;;;;;;109251;1252;59085;-80
2023/10/03 02:44:39;;;;;;;14.30;6.90;;;;;;;;;;109261;1252;59047;-81
2023/10/03 02:47:06;;;;;;;12.20;6.50;;;;;;;;;;109199;1253;59773;-80
2023/10/03 02:49:34;;;;;;;13.40;7.10;;;;;;;;;;109250;1252;59690;-80
2023/10/03 02:52:03;;;;;;;13.00;7.00;;;;;;;;;;109280;1252;61839;-80
2023/10/03 02:54:32;;;;;;;9.30;5.70;;;;;;;;;;109253;1252;58970;-80
2023/10/03 02:56:59;;;;;;;12.50;5.30;;;;;;;;;;109223;1252;60843;-81
2023/10/03 02:59:25;;;;;;;12.20;6.40;;;;;;;;;;109275;1252;59634;-80
2023/10/03 03:01:52;;;;;;;9.10;6.20;;;;;;;;;;109266;1252;59147;-80
2023/10/03 03:04:21;;;;;;;10.90;6.60;;;;;;;;;;109226;1252;61985;-80
2023/10/03 03:06:50;;;;;;;10.20;6.60;;;;;;;;;;109259;1252;59737;-80
2023/10/03 03:09:23;;;;;;;13.10;6.00;;;;;;;;;;109327;1252;59321;-80
2023/10/03 03:11:50;;;;;;;9.50;6.30;;;;;;;;;;109287;1253;59684;-80
2023/10/03 03:14:16;;;;;;;12.10;6.30;;;;;;;;;;109337;1253;59557;-80
2023/10/03 03:16:47;;;;;;;9.90;5.50;;;;;;;;;;109326;1252;59025;-80
2023/10/03 03:19:14;;;;;;;11.30;5.60;;;;;;;;;;109314;1253;59114;-80
2023/10/03 03:21:41;;;;;;;9.40;5.90;;;;;;;;;;109315;1253;59579;-80
2023/10/03 03:24:10;;;;;;;8.60;6.00;;;;;;;;;;109236;1252;59688;-81
2023/10/03 03:26:37;;;;;;;10.60;6.50;;;;;;;;;;109257;1252;58987;-80
2023/10/03 03:29:19;;;;;;;12.00;5.60;;;;;;;;;;109274;1252;59177;-80
2023/10/03 03:31:46;;;;;;;9.10;5.20;;;;;;;;;;109258;1252;59024;-80
2023/10/03 03:34:12;;;;;;;16.70;7.00;;;;;;;;;;109288;1252;59586;-80
2023/10/03 03:36:40;;;;;;;11.90;6.10;;;;;;;;;;109244;1252;59185;-81
2023/10/03 03:39:15;;;;;;;12.50;6.80;;;;;;;;;;109264;1253;59133;-80
2023/10/03 03:41:42;;;;;;;11.10;5.60;;;;;;;;;;109287;1252;61853;-80
2023/10/03 03:44:11;;;;;;;11.30;7.40;;;;;;;;;;109270;1252;59051;-80
2023/10/03 03:46:40;;;;;;;13.30;6.40;;;;;;;;;;109268;1252;61044;-80
2023/10/03 03:49:08;;;;;;;11.40;6.00;;;;;;;;;;109245;1252;59488;-80
2023/10/03 03:51:35;;;;;;;12.80;5.00;;;;;;;;;;109297;1253;59180;-81
2023/10/03 03:54:03;;;;;;;19.00;7.20;;;;;;;;;;109313;1252;60718;-81
2023/10/03 03:56:30;;;;;;;13.00;6.20;;;;;;;;;;109288;1252;59071;-81
2023/10/03 03:58:56;;;;;;;10.00;5.80;;;;;;;;;;109232;1253;59780;-82
2023/10/03 04:01:23;;;;;;;10.60;6.40;;;;;;;;;;109285;1252;59754;-81
2023/10/03 04:03:53;;;;;;;10.00;6.30;;;;;;;;;;109248;1252;59039;-81
2023/10/03 04:06:20;;;;;;;11.20;6.40;;;;;;;;;;109216;1253;61973;-80
2023/10/03 04:08:46;;;;;;;10.30;5.70;;;;;;;;;;109287;1254;59238;-80
2023/10/03 04:11:16;;;;;;;13.90;6.70;;;;;;;;;;109310;1253;59326;-80
2023/10/03 04:13:55;;;;;;;12.20;6.70;;;;;;;;;;109239;1254;59735;-81
2023/10/03 04:16:22;;;;;;;15.50;6.60;;;;;;;;;;109279;1252;58963;-80
2023/10/03 04:18:50;;;;;;;16.50;6.70;;;;;;;;;;109292;1254;62505;-80
2023/10/03 04:21:17;;;;;;;13.80;6.80;;;;;;;;;;109303;1254;59173;-80
2023/10/03 04:23:44;;;;;;;13.70;6.40;;;;;;;;;;109274;1252;59056;-80
2023/10/03 04:26:10;;;;;;;7.90;5.20;;;;;;;;;;109312;1253;59318;-81
2023/10/03 04:28:38;;;;;;;13.00;6.00;;;;;;;;;;109254;1253;59285;-80
2023/10/03 04:31:04;;;;;;;8.60;4.90;;;;;;;;;;109265;1252;61626;-80
2023/10/03 05:25:37;;;;;;;13.80;7.40;;;;;;;;;;109253;1252;60632;-81
2023/10/03 05:28:07;;;;;;;14.10;6.80;;;;;;;;;;109189;1252;59374;-80
2023/10/03 05:30:35;;;;;;;12.90;5.80;;;;;;;;;;109243;1253;59153;-80
2023/10/03 05:33:01;;;;;;;17.30;6.00;;;;;;;;;;109314;1251;59072;-81
2023/10/03 05:35:28;;;;;;;14.10;7.20;;;;;;;;;;109267;1252;59107;-80
2023/10/03 05:37:55;;;;;;;9.90;5.90;;;;;;;;;;109291;1252;59584;-81
2023/10/03 05:40:22;;;;;;;15.60;5.90;;;;;;;;;;109261;1253;60291;-81
2023/10/03 05:42:49;;;;;;;12.10;6.90;;;;;;;;;;109214;1256;59045;-80
2023/10/03 05:45:15;;;;;;;14.90;7.00;;;;;;;;;;109261;1252;59579;-81
2023/10/03 05:47:45;;;;;;;16.00;8.80;;;;;;;;;;109218;1253;60367;-80
2023/10/03 05:50:12;;;;;;;17.00;7.70;;;;;;;;;;109230;1253;59454;-80
2023/10/03 05:52:39;;;;;;;17.50;9.10;;;;;;;;;;109208;1252;59029;-80
2023/10/03 05:55:06;;;;;;;12.30;7.30;;;;;;;;;;109314;1251;59526;-81
2023/10/03 05:57:33;;;;;;;15.10;7.90;;;;;;;;;;109210;1252;59055;-81
2023/10/03 06:00:00;;;;;;;12.30;7.40;;;;;;;;;;109235;1253;63113;-80
2023/10/03 06:02:26;;;;;;;13.20;6.40;;;;;;;;;;109252;1253;59536;-80
2023/10/03 06:04:54;;;;;;;12.00;7.20;;;;;;;;;;109215;1253;59800;-81
2023/10/03 06:07:20;;;;;;;12.20;6.80;;;;;;;;;;109201;1251;59754;-81
2023/10/03 06:09:47;;;;;;;19.00;10.30;;;;;;;;;;109241;1253;59743;-80
2023/10/03 06:12:13;;;;;;;19.40;9.50;;;;;;;;;;109286;1251;59412;-81
2023/10/03 06:14:40;;;;;;;13.20;6.60;;;;;;;;;;109183;1253;59413;-81
2023/10/03 06:17:07;;;;;;;12.20;6.80;;;;;;;;;;109243;1253;59769;-80
2023/10/03 06:19:35;;;;;;;13.50;6.40;;;;;;;;;;109204;1255;59267;-81
2023/10/03 06:22:02;;;;;;;11.00;7.40;;;;;;;;;;109214;1253;59023;-81
2023/10/03 06:24:31;;;;;;;11.30;6.50;;;;;;;;;;109213;1253;61905;-81
2023/10/03 06:26:57;;;;;;;;;;;;;;;;;;109430;1253;59067;-80
2023/10/03 06:29:24;;;;;;;10.70;6.30;;;;;;;;;;109408;1255;58915;-81
2023/10/03 06:31:51;;;;;;;14.70;7.00;;;;;;;;;;109395;1254;59223;-81
2023/10/03 06:34:18;;;;;;;15.40;6.70;;;;;;;;;;109396;1253;59161;-81
2023/10/03 06:36:44;;;;;;;11.90;7.00;;;;;;;;;;109414;1253;62781;-81
2023/10/03 06:39:12;;;;;;;13.20;6.40;;;;;;;;;;109316;1253;59096;-81
2023/10/03 06:41:38;;;;;;;12.90;5.90;;;;;;;;;;109234;1252;59552;-81
2023/10/03 06:44:05;;;;;;;10.00;6.60;;;;;;;;;;109187;1253;59844;-81
2023/10/03 06:46:34;;;;;;;14.30;6.70;;;;;;;;;;109253;1253;59189;-81
2023/10/03 06:49:01;;;;;;;12.70;6.40;;;;;;;;;;109249;1251;61921;-81
2023/10/03 06:51:27;;;;;;;13.30;6.90;;;;;;;;;;109250;1252;59379;-81
2023/10/03 06:53:54;;;;;;;11.20;6.90;;;;;;;;;;109326;1251;61240;-81
2023/10/03 06:56:20;;;;;;;11.60;7.10;;;;;;;;;;109277;1251;59341;-81
2023/10/03 06:58:47;;;;;;;14.40;7.90;;;;;;;;;;109260;1253;59391;-81
2023/10/03 07:01:14;;;;;;;13.10;7.40;;;;;;;;;;109223;1253;59379;-81
2023/10/03 07:03:40;;;;;;;15.40;7.60;;;;;;;;;;109166;1254;59186;-81
2023/10/03 07:06:07;;;;;;;12.40;6.70;;;;;;;;;;109185;1253;59352;-81
2023/10/03 07:08:34;;;;;;;19.10;8.70;;;;;;;;;;109213;1253;59065;-81
2023/10/03 07:11:01;;;;;;;12.00;7.50;;;;;;;;;;109287;1254;59573;-81
2023/10/03 07:13:27;;;;;;;10.80;6.40;;;;;;;;;;109253;1253;61561;-82
2023/10/03 07:15:57;;;;;;;12.50;6.20;;;;;;;;;;109198;1252;59986;-82
2023/10/03 07:18:24;;;;;;;12.30;6.60;;;;;;;;;;109197;1256;59890;-82
2023/10/03 07:20:50;;;;;;;11.60;6.50;;;;;;;;;;109211;1253;59675;-82
2023/10/03 07:23:19;;;;;;;16.20;6.80;;;;;;;;;;109173;1253;59309;-82
2023/10/03 07:25:46;;;;;;;11.70;6.50;;;;;;;;;;109236;1254;62498;-82
2023/10/03 07:28:14;;;;;;;11.00;7.00;;;;;;;;;;109195;1252;59339;-82
2023/10/03 07:30:41;;;;;;;14.20;6.80;;;;;;;;;;109216;1256;59354;-82
2023/10/03 07:33:08;;;;;;;14.30;6.10;;;;;;;;;;109245;1257;59517;-82
2023/10/03 07:35:37;;;;;;;10.20;5.90;;;;;;;;;;109274;1253;59638;-82
2023/10/03 07:38:04;;;;;;;14.20;5.80;;;;;;;;;;109221;1254;61961;-83
2023/10/03 07:40:30;;;;;;;11.10;6.40;;;;;;;;;;109215;1253;59327;-82
2023/10/03 07:42:56;;;;;;;10.50;5.60;;;;;;;;;;109187;1251;59091;-82
2023/10/03 07:45:23;;;;;;;11.10;6.40;;;;;;;;;;109146;1253;59435;-82
2023/10/03 07:47:50;;;;;;;12.10;5.70;;;;;;;;;;109232;1253;59220;-83
2023/10/03 07:50:18;;;;;;;12.70;6.10;;;;;;;;;;109183;1252;61606;-83
2023/10/03 07:52:48;;;;;;;10.30;6.10;;;;;;;;;;109197;1252;59439;-82
2023/10/03 07:55:15;;;;;;;13.90;6.70;;;;;;;;;;109166;1253;59978;-82
2023/10/03 07:57:42;;;;;;;9.20;5.90;;;;;;;;;;109134;1253;59064;-83
2023/10/03 08:00:15;;;;;;;9.90;7.00;;;;;;;;;;109301;1254;59971;-82
2023/10/03 08:02:43;;;;;;;7.70;5.30;;;;;;;;;;109251;1252;62015;-83
2023/10/03 08:05:11;;;;;;;12.60;5.70;;;;;;;;;;109217;1256;59368;-83
2023/10/03 08:07:38;;;;;;;9.30;6.20;;;;;;;;;;109218;1253;60884;-83
2023/10/03 08:10:05;;;;;;;12.40;6.70;;;;;;;;;;109246;1253;59045;-82
2023/10/03 08:12:37;;;;;;;8.60;5.00;;;;;;;;;;109183;1254;59071;-83
2023/10/03 08:15:16;;;;;;;9.50;5.70;;;;;;;;;;109167;1256;62817;-83
2023/10/03 08:17:44;;;;;;;9.70;5.10;;;;;;;;;;109210;1257;59724;-83
2023/10/03 08:20:14;;;;;;;7.70;4.40;;;;;;;;;;109185;1253;59473;-83
2023/10/03 08:22:50;;;;;;;12.40;5.20;;;;;;;;;;109169;1253;59749;-83
2023/10/03 08:25:21;;;;;;;7.30;4.60;;;;;;;;;;109206;1254;59401;-83
2023/10/03 08:27:50;;;;;;;5.90;4.40;;;;;;;;;;109203;1252;62928;-83
2023/10/03 08:30:28;;;;;;;6.90;4.30;;;;;;;;;;109228;1253;59358;-83
2023/10/03 08:32:55;;;;;;;9.80;5.20;;;;;;;;;;109214;1253;60900;-83
2023/10/03 08:35:34;;;;;;;7.20;4.00;;;;;;;;;;109136;1255;59883;-83
2023/10/03 08:38:04;;;;;;;6.70;4.00;;;;;;;;;;109219;1253;59690;-84
2023/10/03 08:40:40;;;;;;;7.50;4.00;;;;;;;;;;109181;1253;61913;-84
2023/10/03 08:43:10;;;;;;;6.10;3.80;;;;;;;;;;109187;1253;59710;-84
2023/10/03 08:45:43;;;;;;;8.10;4.00;;;;;;;;;;109176;1254;60762;-83
2023/10/03 08:48:10;;;;;;;5.20;3.30;;;;;;;;;;109212;1256;59641;-83
2023/10/03 08:50:37;;;;;;;7.50;4.50;;;;;;;;;;109230;1253;58967;-84
2023/10/03 08:53:12;;;;;;;7.50;4.50;;;;;;;;;;109206;1253;61583;-83
2023/10/03 08:55:39;;;;;;;14.60;5.40;;;;;;;;;;109124;1256;59136;-83
2023/10/03 08:58:08;;;;;;;8.70;6.30;;;;;;;;;;109204;1252;59127;-83
2023/10/03 09:00:40;;;;;;;13.50;5.80;;;;;;;;;;109223;1254;59711;-83
2023/10/03 09:03:10;;;;;;;15.40;4.70;;;;;;;;;;109226;1259;59663;-83
2023/10/03 09:05:42;;;;;;;9.50;5.10;;;;;;;;;;109133;1258;61843;-83
2023/10/03 09:08:12;;;;;;;9.30;4.60;;;;;;;;;;109175;1256;59701;-83
2023/10/03 09:10:53;;;;;;;8.30;5.80;;;;;;;;;;109186;1257;59470;-83
2023/10/03 09:13:26;;;;;;;7.40;4.50;;;;;;;;;;109154;1253;59092;-82
2023/10/03 09:15:59;;;;;;;8.30;4.80;;;;;;;;;;109189;1253;59641;-83
2023/10/03 09:18:26;;;;;;;8.30;4.30;;;;;;;;;;109230;1255;61977;-82
2023/10/03 09:20:59;;;;;;;8.70;4.60;;;;;;;;;;109210;1253;59675;-83
2023/10/03 09:23:27;;;;;;;9.20;4.60;;;;;;;;;;109254;1253;59764;-82
2023/10/03 09:25:55;;;;;;;8.20;4.30;;;;;;;;;;109179;1254;59747;-82
2023/10/03 09:28:35;;;;;;;9.80;4.40;;;;;;;;;;109225;1254;59350;-82
2023/10/03 09:31:02;;;;;;;8.50;5.00;;;;;;;;;;109202;1253;60462;-82
2023/10/03 09:33:29;;;;;;;11.20;4.70;;;;;;;;;;109159;1253;59540;-83
2023/10/03 09:35:56;;;;;;;7.60;4.50;;;;;;;;;;109151;1253;59422;-82
2023/10/03 09:38:31;;;;;;;10.70;5.60;;;;;;;;;;109199;1253;59418;-83
2023/10/03 09:40:58;;;;;;;10.70;5.20;;;;;;;;;;109164;1258;59559;-83
2023/10/03 09:43:27;;;;;;;6.70;4.30;;;;;;;;;;109215;1254;59148;-82
2023/10/03 09:45:56;;;;;;;7.90;4.00;;;;;;;;;;109219;1254;59530;-83
2023/10/03 09:48:26;;;;;;;9.80;5.40;;;;;;;;;;109189;1254;59949;-82
2023/10/03 09:50:53;;;;;;;10.60;5.10;;;;;;;;;;109200;1254;59258;-82
2023/10/03 09:53:27;;;;;;;7.70;4.20;;;;;;;;;;109179;1253;59686;-82
2023/10/03 09:55:54;;;;;;;7.80;4.60;;;;;;;;;;109174;1253;60910;-82
2023/10/03 09:58:24;;;;;;;8.40;4.90;;;;;;;;;;109173;1251;59229;-82
2023/10/03 10:00:52;;;;;;;9.60;5.00;;;;;;;;;;109162;1254;59377;-83
2023/10/03 10:03:25;;;;;;;8.70;5.00;;;;;;;;;;109179;1254;59035;-83
2023/10/03 10:06:14;;;;;;;8.60;5.20;;;;;;;;;;109243;1255;59107;-83
2023/10/03 10:09:00;;;;;;;7.40;4.20;;;;;;;;;;109173;1254;61040;-82
2023/10/03 10:11:30;;;;;;;14.20;5.60;;;;;;;;;;109149;1257;59505;-82
2023/10/03 10:14:16;;;;;;;10.10;5.10;;;;;;;;;;109175;1254;59278;-82
2023/10/03 10:17:03;;;;;;;11.90;7.10;;;;;;;;;;109178;1253;59595;-82
2023/10/03 10:19:48;;;;;;;7.90;4.70;;;;;;;;;;109105;1253;59747;-82
2023/10/03 10:22:15;;;;;;;10.40;6.00;;;;;;;;;;109134;1254;60481;-83
2023/10/03 10:24:41;;;;;;;16.70;6.20;;;;;;;;;;109221;1254;59027;-82
2023/10/03 10:27:21;;;;;;;11.40;5.40;;;;;;;;;;109168;1254;60828;-82
2023/10/03 10:29:57;;;;;;;10.50;6.20;;;;;;;;;;109126;1254;59081;-82
2023/10/03 10:32:24;;;;;;;11.80;5.40;;;;;;;;;;109221;1253;60178;-82
2023/10/03 10:34:52;;;;;;;9.50;5.10;;;;;;;;;;109192;1255;62590;-82
2023/10/03 10:37:22;;;;;;;11.90;5.10;;;;;;;;;;109211;1253;59337;-83
2023/10/03 10:40:09;;;;;;;14.50;6.60;;;;;;;;;;109215;1253;59458;-82
2023/10/03 10:42:54;;;;;;;10.20;6.40;;;;;;;;;;109192;1256;59127;-82
2023/10/03 10:45:21;;;;;;;10.40;5.70;;;;;;;;;;109213;1254;59672;-82
2023/10/03 10:47:54;;;;;;;11.30;5.60;;;;;;;;;;109216;1254;61499;-82
2023/10/03 10:50:25;;;;;;;8.00;4.80;;;;;;;;;;109220;1254;59067;-83
2023/10/03 10:53:02;;;;;;;10.50;4.60;;;;;;;;;;109158;1254;59708;-82
2023/10/03 10:55:28;;;;;;;14.30;6.40;;;;;;;;;;109191;1256;59196;-82
2023/10/03 10:58:07;;;;;;;12.40;6.70;;;;;;;;;;109223;1254;59652;-83
2023/10/03 11:00:33;;;;;;;;;;;;;;;;;;109269;1253;61900;-83
2023/10/03 11:03:02;;;;;;;12.30;4.70;;;;;;;;;;109111;1253;60417;-82
2023/10/03 11:05:44;;;;;;;12.00;5.00;;;;;;;;;;109152;1254;60658;-82
2023/10/03 11:08:10;;;;;;;10.00;6.20;;;;;;;;;;109191;1253;59225;-83
2023/10/03 11:10:49;;;;;;;10.80;5.50;;;;;;;;;;109182;1254;59097;-82
2023/10/03 11:13:15;;;;;;;6.90;3.80;;;;;;;;;;109210;1254;60850;-82
2023/10/03 11:15:51;;;;;;;10.30;5.00;;;;;;;;;;109176;1253;59689;-82
2023/10/03 11:18:26;;;;;;;10.40;5.00;;;;;;;;;;109161;1254;60241;-83
2023/10/03 11:20:53;;;;;;;10.50;5.10;;;;;;;;;;109201;1253;59000;-82
2023/10/03 11:23:19;;;;;;;9.30;4.20;;;;;;;;;;109121;1254;59140;-83
2023/10/03 11:25:55;;;;;;;9.80;4.80;;;;;;;;;;109134;1254;59085;-83
2023/10/03 11:28:22;;;;;;;9.00;5.00;;;;;;;;;;109216;1254;59093;-82
2023/10/03 11:31:04;;;;;;;8.90;5.60;;;;;;;;;;109328;1253;58925;-82
2023/10/03 11:33:51;;;;;;;10.10;5.00;;;;;;;;;;109219;1252;59851;-83
2023/10/03 11:36:17;;;;;;;10.80;5.00;;;;;;;;;;109170;1254;59282;-82
2023/10/03 11:38:47;;;;;;;14.30;6.70;;;;;;;;;;109213;1254;59037;-84
2023/10/03 11:41:20;;;;;;;7.90;4.40;;;;;;;;;;109208;1254;59125;-82
2023/10/03 11:43:46;;;;;;;14.90;5.10;;;;;;;;;;109222;1253;59859;-83
2023/10/03 11:46:13;;;;;;;14.70;7.80;;;;;;;;;;109175;1254;59236;-82
2023/10/03 11:48:39;;;;;;;9.50;5.30;;;;;;;;;;109214;1254;59036;-82
2023/10/03 11:51:05;;;;;;;9.00;4.90;;;;;;;;;;109243;1253;59230;-83
2023/10/03 11:53:32;;;;;;;9.40;4.90;;;;;;;;;;109249;1253;59636;-83
2023/10/03 11:55:58;;;;;;;8.80;4.90;;;;;;;;;;109185;1253;59336;-82
2023/10/03 11:58:27;;;;;;;9.50;5.00;;;;;;;;;;109221;1253;59359;-83
2023/10/03 12:00:53;;;;;;;11.60;5.50;;;;;;;;;;109218;1253;60490;-83
2023/10/03 12:03:20;;;;;;;13.30;6.00;;;;;;;;;;109245;1254;62326;-82
2023/10/03 12:05:47;;;;;;;11.60;5.80;;;;;;;;;;109164;1252;59206;-82
2023/10/03 12:08:13;;;;;;;12.50;6.60;;;;;;;;;;109183;1253;60617;-83
2023/10/03 12:10:41;;;;;;;9.70;6.10;;;;;;;;;;109162;1254;59316;-82
2023/10/03 12:13:09;;;;;;;11.20;5.70;;;;;;;;;;109187;1252;59223;-83
2023/10/03 12:15:41;;;;;;;11.40;5.70;;;;;;;;;;109195;1253;61537;-82
2023/10/03 12:18:08;;;;;;;14.60;8.80;;;;;;;;;;109208;1252;59094;-83
2023/10/03 12:20:37;;;;;;;12.60;6.80;;;;;;;;;;109174;1254;59506;-83
2023/10/03 12:23:04;;;;;;;12.50;5.90;;;;;;;;;;109201;1253;59266;-83
2023/10/03 12:25:31;;;;;;;14.90;7.90;;;;;;;;;;109179;1252;59008;-82
2023/10/03 12:27:57;;;;;;;12.70;5.90;;;;;;;;;;109158;1254;63012;-83
2023/10/03 12:30:24;;;;;;;10.40;6.20;;;;;;;;;;109168;1254;59337;-82
2023/10/03 12:32:51;;;;;;;14.70;7.00;;;;;;;;;;109214;1252;59525;-84
2023/10/03 12:35:18;;;;;;;16.00;6.80;;;;;;;;;;109191;1254;59013;-84
2023/10/03 12:37:46;;;;;;;16.00;6.80;;;;;;;;;;109204;1253;59124;-82
2023/10/03 12:40:13;;;;;;;17.70;9.30;;;;;;;;;;109210;1253;60897;-83
2023/10/03 12:42:43;;;;;;;10.40;5.80;;;;;;;;;;109240;1252;59648;-83
2023/10/03 12:45:20;;;;;;;12.50;6.50;;;;;;;;;;109225;1253;59451;-81
2023/10/03 12:47:47;;;;;;;13.30;6.30;;;;;;;;;;109177;1252;59590;-82
2023/10/03 12:50:15;;;;;;;11.30;6.20;;;;;;;;;;109176;1253;59116;-83
2023/10/03 12:52:42;;;;;;;13.60;6.80;;;;;;;;;;109237;1254;61939;-84
2023/10/03 12:55:09;;;;;;;15.30;7.50;;;;;;;;;;109207;1254;59465;-82
2023/10/03 12:57:39;;;;;;;12.60;6.80;;;;;;;;;;109151;1253;60810;-82
2023/10/03 13:00:06;;;;;;;16.30;7.20;;;;;;;;;;109161;1254;59662;-82
2023/10/03 13:02:34;;;;;;;10.20;5.80;;;;;;;;;;109177;1253;59335;-82
2023/10/03 13:05:05;;;;;;;11.00;6.40;;;;;;;;;;109193;1254;62637;-82
2023/10/03 13:07:35;;;;;;;14.10;6.40;;;;;;;;;;109243;1254;59772;-82
2023/10/03 13:10:04;;;;;;;13.50;8.20;;;;;;;;;;109318;1253;60594;-82
2023/10/03 13:12:31;;;;;;;14.40;8.20;;;;;;;;;;109083;1253;99770;-82
2023/10/03 13:14:57;;;;;;;14.40;7.70;;;;;;;;;;109241;1251;59157;-83
2023/10/03 13:17:24;;;;;;;18.60;7.40;;;;;;;;;;109174;1253;59031;-83
2023/10/03 13:19:51;;;;;;;17.00;7.20;;;;;;;;;;109185;1254;59887;-82
2023/10/03 13:22:17;;;;;;;20.40;8.00;;;;;;;;;;109190;1252;59072;-83
2023/10/03 13:24:44;;;;;;;15.20;7.90;;;;;;;;;;109141;1252;59211;-83
2023/10/03 13:27:10;;;;;;;13.80;7.50;;;;;;;;;;109219;1252;59062;-83
2023/10/03 13:29:36;;;;;;;13.00;7.20;;;;;;;;;;109182;1252;59093;-83
2023/10/03 13:32:03;;;;;;;14.00;7.50;;;;;;;;;;109164;1254;59530;-84
2023/10/03 13:34:29;;;;;;;16.90;8.80;;;;;;;;;;109188;1252;59772;-82
2023/10/03 13:36:56;;;;;;;16.20;8.50;;;;;;;;;;109172;1252;59808;-83
2023/10/03 13:39:26;;;;;;;13.60;7.50;;;;;;;;;;109236;1252;59281;-83
2023/10/03 13:41:53;;;;;;;22.70;9.00;;;;;;;;;;109193;1252;62202;-82
2023/10/03 13:44:19;;;;;;;22.10;9.80;;;;;;;;;;109173;1252;59866;-82
2023/10/03 13:46:46;;;;;;;18.20;7.70;;;;;;;;;;109158;1252;60401;-82
2023/10/03 13:49:15;;;;;;;15.40;8.40;;;;;;;;;;109190;1252;59193;-82
2023/10/03 13:51:41;;;;;;;;;;;;;;;;;;109205;1252;59219;-82
2023/10/03 13:54:08;;;;;;;16.80;9.90;;;;;;;;;;109198;1252;59248;-83
2023/10/03 13:56:34;;;;;;;21.70;10.40;;;;;;;;;;109234;1253;58997;-83
2023/10/03 13:59:02;;;;;;;21.60;10.00;;;;;;;;;;109172;1251;59469;-82
2023/10/03 14:01:29;;;;;;;14.20;8.30;;;;;;;;;;109206;1253;59326;-83
2023/10/03 14:03:57;;;;;;;19.10;10.40;;;;;;;;;;109179;1252;59100;-83
2023/10/03 14:06:25;;;;;;;20.70;10.60;;;;;;;;;;109201;1253;61708;-82
2023/10/03 14:08:52;;;;;;;19.00;9.20;;;;;;;;;;109149;1253;58949;-82
2023/10/03 14:11:22;;;;;;;15.00;9.10;;;;;;;;;;109228;1252;60538;-82
2023/10/03 14:13:52;;;;;;;22.90;10.90;;;;;;;;;;109185;1253;59040;-82
2023/10/03 14:16:21;;;;;;;18.60;10.00;;;;;;;;;;109152;1254;58936;-82
2023/10/03 14:18:49;;;;;;;16.80;9.60;;;;;;;;;;109355;1251;62505;-82
2023/10/03 14:21:16;;;;;;;21.40;10.60;;;;;;;;;;109207;1252;60603;-82
2023/10/03 14:23:42;;;;;;;19.70;9.80;;;;;;;;;;109226;1253;59402;-82
2023/10/03 14:26:09;;;;;;;20.50;8.70;;;;;;;;;;109247;1253;59363;-82
2023/10/03 14:28:35;;;;;;;16.80;8.50;;;;;;;;;;109267;1253;60899;-82
2023/10/03 14:31:02;;;;;;;15.80;8.20;;;;;;;;;;109196;1253;59364;-83
2023/10/03 14:33:29;;;;;;;14.90;8.40;;;;;;;;;;109211;1252;59710;-81
2023/10/03 14:35:59;;;;;;;15.70;8.30;;;;;;;;;;109210;1253;59776;-81
2023/10/03 14:38:26;;;;;;;14.00;8.00;;;;;;;;;;109193;1252;59761;-82
2023/10/03 14:40:53;;;;;;;11.70;7.20;;;;;;;;;;109213;1252;59319;-81
2023/10/03 14:43:20;;;;;;;12.00;7.10;;;;;;;;;;109113;1254;60424;-82
2023/10/03 14:45:46;;;;;;;16.30;6.90;;;;;;;;;;109139;1253;59577;-81
2023/10/03 14:48:13;;;;;;;18.10;8.30;;;;;;;;;;109058;1254;60172;-82
2023/10/03 14:50:39;;;;;;;21.70;7.30;;;;;;;;;;109116;1253;59573;-82
2023/10/03 14:53:07;;;;;;;17.50;7.90;;;;;;;;;;109133;1254;59323;-81
2023/10/03 14:55:33;;;;;;;18.50;8.30;;;;;;;;;;109205;1253;60413;-82
2023/10/03 14:58:02;;;;;;;14.30;7.00;;;;;;;;;;109151;1252;59278;-81
2023/10/03 15:00:28;;;;;;;14.90;7.50;;;;;;;;;;109278;1252;59653;-82
2023/10/03 15:02:54;;;;;;;14.80;7.80;;;;;;;;;;109219;1252;59635;-82
2023/10/03 15:05:23;;;;;;;17.40;8.20;;;;;;;;;;109244;1251;59044;-81
2023/10/03 15:07:49;;;;;;;17.80;8.10;;;;;;;;;;109322;1253;62857;-82
2023/10/03 15:10:16;;;;;;;15.30;7.80;;;;;;;;;;109312;1252;59148;-82
2023/10/03 15:12:42;;;;;;;13.00;7.40;;;;;;;;;;109159;1252;60806;-82
2023/10/03 15:15:09;;;;;;;18.10;8.70;;;;;;;;;;109162;1253;59814;-82
2023/10/03 15:17:37;;;;;;;19.50;9.40;;;;;;;;;;109187;1252;59320;-82
2023/10/03 15:20:05;;;;;;;16.50;8.50;;;;;;;;;;109187;1253;61964;-81
2023/10/03 15:22:32;;;;;;;17.80;8.50;;;;;;;;;;109218;1252;59719;-82
2023/10/03 15:24:58;;;;;;;19.30;9.30;;;;;;;;;;109156;1253;60958;-82